Depoe Bay, Oregon
Current Conditions -  °F | °C
As of 8:35 PM on Friday 24 Oct 2014 (Local Time) from KONP Reporting Station
Scattered Clouds Scattered Clouds  
Wind Chill: 52°   Ceiling: Unl
Heat Index: 52°   Visibility: 10mi
Dew Point: 50°   Wind: 14mph
Humidity: 94%   Direction: 90°E
Pressure: 29.7"   Gusts: NA
Location:  44.81°N, 124.06°W
Report Text: KONP 250335Z AUTO 09012KT 10SM SCT065 SCT110 11/10 A2970 RMK AO2
Loading
Personal Weather Stations






























Interactive Weather Map
Tropical Storm Tracking
New forecast layout! Learn more

10-Day Weather Forecast

Advertisements
Track Severe Weather on mobile